sensor_id;sensor_type;location;lat;lon;timestamp;temperature;humidity
45096;DHT22;30858;51.108;8.068;2023-05-10T00:01:21;12.60;99.90
45096;DHT22;30858;51.108;8.068;2023-05-10T00:03:46;12.60;99.90
45096;DHT22;30858;51.108;8.068;2023-05-10T00:06:12;12.50;99.90
45096;DHT22;30858;51.108;8.068;2023-05-10T00:08:37;12.50;99.90
45096;DHT22;30858;51.108;8.068;2023-05-10T00:11:03;12.50;99.90
45096;DHT22;30858;51.108;8.068;2023-05-10T00:13:29;12.50;99.90
45096;DHT22;30858;51.108;8.068;2023-05-10T00:15:54;12.50;99.90
45096;DHT22;30858;51.108;8.068;2023-05-10T00:18:20;12.40;99.90
45096;DHT22;30858;51.108;8.068;2023-05-10T00:20:45;12.40;99.90
45096;DHT22;30858;51.108;8.068;2023-05-10T00:23:11;12.40;99.90
45096;DHT22;30858;51.108;8.068;2023-05-10T00:25:37;12.40;99.90
45096;DHT22;30858;51.108;8.068;2023-05-10T00:28:03;12.40;99.90
45096;DHT22;30858;51.108;8.068;2023-05-10T00:30:28;12.40;99.90
45096;DHT22;30858;51.108;8.068;2023-05-10T00:32:54;12.30;99.90
45096;DHT22;30858;51.108;8.068;2023-05-10T00:35:19;12.30;99.90
45096;DHT22;30858;51.108;8.068;2023-05-10T00:37:45;12.30;99.90
45096;DHT22;30858;51.108;8.068;2023-05-10T00:40:11;12.30;99.90
45096;DHT22;30858;51.108;8.068;2023-05-10T00:42:36;12.30;99.90
45096;DHT22;30858;51.108;8.068;2023-05-10T00:45:02;12.20;99.90
45096;DHT22;30858;51.108;8.068;2023-05-10T00:47:28;12.10;99.90
45096;DHT22;30858;51.108;8.068;2023-05-10T00:49:54;12.10;99.90
45096;DHT22;30858;51.108;8.068;2023-05-10T00:52:21;12.10;99.90
45096;DHT22;30858;51.108;8.068;2023-05-10T00:54:49;12.10;99.90
45096;DHT22;30858;51.108;8.068;2023-05-10T00:57:14;12.10;99.90
45096;DHT22;30858;51.108;8.068;2023-05-10T00:59:40;12.10;99.90
45096;DHT22;30858;51.108;8.068;2023-05-10T01:02:06;12.00;99.90
45096;DHT22;30858;51.108;8.068;2023-05-10T01:04:32;12.00;99.90
45096;DHT22;30858;51.108;8.068;2023-05-10T01:06:58;12.10;99.90
45096;DHT22;30858;51.108;8.068;2023-05-10T01:09:24;12.10;99.90
45096;DHT22;30858;51.108;8.068;2023-05-10T01:11:51;12.10;99.90
45096;DHT22;30858;51.108;8.068;2023-05-10T01:14:18;12.10;99.90
45096;DHT22;30858;51.108;8.068;2023-05-10T01:16:46;12.10;99.90
45096;DHT22;30858;51.108;8.068;2023-05-10T01:19:19;12.00;99.90
45096;DHT22;30858;51.108;8.068;2023-05-10T01:24:40;12.10;99.90
45096;DHT22;30858;51.108;8.068;2023-05-10T01:27:24;12.00;99.90
45096;DHT22;30858;51.108;8.068;2023-05-10T01:38:27;12.00;99.90
45096;DHT22;30858;51.108;8.068;2023-05-10T01:41:04;12.00;99.90
45096;DHT22;30858;51.108;8.068;2023-05-10T01:43:42;12.00;99.90
45096;DHT22;30858;51.108;8.068;2023-05-10T01:46:20;11.90;99.90
45096;DHT22;30858;51.108;8.068;2023-05-10T01:48:48;12.00;99.90
45096;DHT22;30858;51.108;8.068;2023-05-10T01:51:23;12.00;99.90
45096;DHT22;30858;51.108;8.068;2023-05-10T01:53:49;12.00;99.90
45096;DHT22;30858;51.108;8.068;2023-05-10T01:56:17;12.00;99.90
45096;DHT22;30858;51.108;8.068;2023-05-10T01:58:45;12.00;99.90
45096;DHT22;30858;51.108;8.068;2023-05-10T02:01:13;11.90;99.90
45096;DHT22;30858;51.108;8.068;2023-05-10T02:03:41;12.00;99.90
45096;DHT22;30858;51.108;8.068;2023-05-10T02:06:09;12.00;99.90
45096;DHT22;30858;51.108;8.068;2023-05-10T02:08:35;12.00;99.90
45096;DHT22;30858;51.108;8.068;2023-05-10T02:11:03;12.00;99.90
45096;DHT22;30858;51.108;8.068;2023-05-10T02:13:31;12.00;99.90
45096;DHT22;30858;51.108;8.068;2023-05-10T02:15:59;12.00;99.90
45096;DHT22;30858;51.108;8.068;2023-05-10T02:18:27;12.00;99.90
45096;DHT22;30858;51.108;8.068;2023-05-10T02:20:54;12.00;99.90
45096;DHT22;30858;51.108;8.068;2023-05-10T02:23:20;12.00;99.90
45096;DHT22;30858;51.108;8.068;2023-05-10T02:25:48;12.00;99.90
45096;DHT22;30858;51.108;8.068;2023-05-10T02:28:15;12.00;99.90
45096;DHT22;30858;51.108;8.068;2023-05-10T02:30:42;11.90;99.90
45096;DHT22;30858;51.108;8.068;2023-05-10T02:33:08;11.90;99.90
45096;DHT22;30858;51.108;8.068;2023-05-10T02:35:35;11.90;99.90
45096;DHT22;30858;51.108;8.068;2023-05-10T02:38:01;11.90;99.90
45096;DHT22;30858;51.108;8.068;2023-05-10T02:40:27;11.90;99.90
45096;DHT22;30858;51.108;8.068;2023-05-10T02:42:55;11.90;99.90
45096;DHT22;30858;51.108;8.068;2023-05-10T02:45:24;11.90;99.90
45096;DHT22;30858;51.108;8.068;2023-05-10T02:47:51;11.90;99.90
45096;DHT22;30858;51.108;8.068;2023-05-10T02:50:18;11.90;99.90
45096;DHT22;30858;51.108;8.068;2023-05-10T02:52:46;11.90;99.90
45096;DHT22;30858;51.108;8.068;2023-05-10T02:55:15;11.90;99.90
45096;DHT22;30858;51.108;8.068;2023-05-10T02:57:46;11.90;99.90
45096;DHT22;30858;51.108;8.068;2023-05-10T03:00:14;11.90;99.90
45096;DHT22;30858;51.108;8.068;2023-05-10T03:02:40;11.80;99.90
45096;DHT22;30858;51.108;8.068;2023-05-10T03:05:05;11.80;99.90
45096;DHT22;30858;51.108;8.068;2023-05-10T03:07:32;11.90;99.90
45096;DHT22;30858;51.108;8.068;2023-05-10T03:09:58;11.90;99.90
45096;DHT22;30858;51.108;8.068;2023-05-10T03:17:47;11.90;99.90
45096;DHT22;30858;51.108;8.068;2023-05-10T03:20:31;11.90;99.90
45096;DHT22;30858;51.108;8.068;2023-05-10T03:25:42;11.90;99.90
45096;DHT22;30858;51.108;8.068;2023-05-10T03:28:09;11.90;99.90
45096;DHT22;30858;51.108;8.068;2023-05-10T03:30:35;11.80;99.90
45096;DHT22;30858;51.108;8.068;2023-05-10T03:33:08;11.80;99.90
45096;DHT22;30858;51.108;8.068;2023-05-10T03:35:33;11.80;99.90
45096;DHT22;30858;51.108;8.068;2023-05-10T03:37:59;11.80;99.90
45096;DHT22;30858;51.108;8.068;2023-05-10T03:40:25;11.70;99.90
45096;DHT22;30858;51.108;8.068;2023-05-10T03:42:51;11.80;99.90
45096;DHT22;30858;51.108;8.068;2023-05-10T03:45:17;11.80;99.90
45096;DHT22;30858;51.108;8.068;2023-05-10T03:47:42;11.80;99.90
45096;DHT22;30858;51.108;8.068;2023-05-10T03:50:08;11.80;99.90
45096;DHT22;30858;51.108;8.068;2023-05-10T03:52:34;11.80;99.90
45096;DHT22;30858;51.108;8.068;2023-05-10T03:54:59;11.80;99.90
45096;DHT22;30858;51.108;8.068;2023-05-10T03:57:25;11.80;99.90
45096;DHT22;30858;51.108;8.068;2023-05-10T03:59:50;11.90;99.90
45096;DHT22;30858;51.108;8.068;2023-05-10T04:02:16;11.90;99.90
45096;DHT22;30858;51.108;8.068;2023-05-10T04:04:41;11.90;99.90
45096;DHT22;30858;51.108;8.068;2023-05-10T04:07:07;11.90;99.90
45096;DHT22;30858;51.108;8.068;2023-05-10T04:09:32;11.80;99.90
45096;DHT22;30858;51.108;8.068;2023-05-10T04:11:59;11.80;99.90
45096;DHT22;30858;51.108;8.068;2023-05-10T04:14:25;11.80;99.90
45096;DHT22;30858;51.108;8.068;2023-05-10T04:16:51;11.80;99.90
45096;DHT22;30858;51.108;8.068;2023-05-10T04:19:16;11.80;99.90
45096;DHT22;30858;51.108;8.068;2023-05-10T04:21:42;11.70;99.90
45096;DHT22;30858;51.108;8.068;2023-05-10T04:24:07;11.80;99.90
45096;DHT22;30858;51.108;8.068;2023-05-10T04:26:33;11.90;99.90
45096;DHT22;30858;51.108;8.068;2023-05-10T04:28:58;11.90;99.90
45096;DHT22;30858;51.108;8.068;2023-05-10T04:31:24;11.90;99.90
45096;DHT22;30858;51.108;8.068;2023-05-10T04:33:50;11.90;99.90
45096;DHT22;30858;51.108;8.068;2023-05-10T04:36:15;11.90;99.90
45096;DHT22;30858;51.108;8.068;2023-05-10T04:38:41;12.00;99.90
45096;DHT22;30858;51.108;8.068;2023-05-10T04:41:09;11.90;99.90
45096;DHT22;30858;51.108;8.068;2023-05-10T04:43:34;12.00;99.90
45096;DHT22;30858;51.108;8.068;2023-05-10T04:46:00;12.00;99.90
45096;DHT22;30858;51.108;8.068;2023-05-10T04:48:26;12.00;99.90
45096;DHT22;30858;51.108;8.068;2023-05-10T04:50:52;12.00;99.90
45096;DHT22;30858;51.108;8.068;2023-05-10T04:53:17;12.00;99.90
45096;DHT22;30858;51.108;8.068;2023-05-10T04:55:43;12.00;99.90
45096;DHT22;30858;51.108;8.068;2023-05-10T04:58:08;12.00;99.90
45096;DHT22;30858;51.108;8.068;2023-05-10T05:00:34;12.00;99.90
45096;DHT22;30858;51.108;8.068;2023-05-10T05:03:00;12.00;99.90
45096;DHT22;30858;51.108;8.068;2023-05-10T05:05:26;12.00;99.90
45096;DHT22;30858;51.108;8.068;2023-05-10T05:07:51;12.00;99.90
45096;DHT22;30858;51.108;8.068;2023-05-10T05:10:17;12.00;99.90
45096;DHT22;30858;51.108;8.068;2023-05-10T05:12:42;12.10;99.90
45096;DHT22;30858;51.108;8.068;2023-05-10T05:15:08;12.10;99.90
45096;DHT22;30858;51.108;8.068;2023-05-10T05:17:35;12.10;99.90
45096;DHT22;30858;51.108;8.068;2023-05-10T05:20:00;12.10;99.90
45096;DHT22;30858;51.108;8.068;2023-05-10T05:22:26;12.20;99.90
45096;DHT22;30858;51.108;8.068;2023-05-10T05:24:56;12.20;99.90
45096;DHT22;30858;51.108;8.068;2023-05-10T05:27:23;12.20;99.90
45096;DHT22;30858;51.108;8.068;2023-05-10T05:29:55;12.20;99.90
45096;DHT22;30858;51.108;8.068;2023-05-10T05:32:21;12.30;99.90
45096;DHT22;30858;51.108;8.068;2023-05-10T05:34:47;12.30;99.90
45096;DHT22;30858;51.108;8.068;2023-05-10T05:37:14;12.40;99.90
45096;DHT22;30858;51.108;8.068;2023-05-10T05:39:40;12.40;99.90
45096;DHT22;30858;51.108;8.068;2023-05-10T05:42:05;12.50;99.90
45096;DHT22;30858;51.108;8.068;2023-05-10T05:44:31;12.60;99.90
45096;DHT22;30858;51.108;8.068;2023-05-10T05:46:56;12.70;99.90
45096;DHT22;30858;51.108;8.068;2023-05-10T05:49:22;12.70;99.90
45096;DHT22;30858;51.108;8.068;2023-05-10T05:51:47;12.70;99.90
45096;DHT22;30858;51.108;8.068;2023-05-10T05:54:14;12.60;99.90
45096;DHT22;30858;51.108;8.068;2023-05-10T05:56:40;12.60;99.90
45096;DHT22;30858;51.108;8.068;2023-05-10T05:59:05;12.60;99.90
45096;DHT22;30858;51.108;8.068;2023-05-10T06:01:31;12.60;99.90
45096;DHT22;30858;51.108;8.068;2023-05-10T06:03:57;12.60;99.90
45096;DHT22;30858;51.108;8.068;2023-05-10T06:06:22;12.50;99.90
45096;DHT22;30858;51.108;8.068;2023-05-10T06:08:48;12.60;99.90
45096;DHT22;30858;51.108;8.068;2023-05-10T06:11:13;12.60;99.90
45096;DHT22;30858;51.108;8.068;2023-05-10T06:13:39;12.70;99.90
45096;DHT22;30858;51.108;8.068;2023-05-10T06:16:04;12.80;99.90
45096;DHT22;30858;51.108;8.068;2023-05-10T06:18:30;12.80;99.90
45096;DHT22;30858;51.108;8.068;2023-05-10T06:20:56;12.70;99.90
45096;DHT22;30858;51.108;8.068;2023-05-10T06:23:22;12.60;99.90
45096;DHT22;30858;51.108;8.068;2023-05-10T06:25:48;12.60;99.90
45096;DHT22;30858;51.108;8.068;2023-05-10T06:28:13;12.80;99.90
45096;DHT22;30858;51.108;8.068;2023-05-10T06:30:39;12.90;99.90
45096;DHT22;30858;51.108;8.068;2023-05-10T06:33:04;13.10;99.90
45096;DHT22;30858;51.108;8.068;2023-05-10T06:35:30;13.20;99.90
45096;DHT22;30858;51.108;8.068;2023-05-10T06:37:58;13.30;99.90
45096;DHT22;30858;51.108;8.068;2023-05-10T06:40:23;13.30;99.90
45096;DHT22;30858;51.108;8.068;2023-05-10T06:42:49;13.30;99.90
45096;DHT22;30858;51.108;8.068;2023-05-10T06:45:15;13.20;99.90
45096;DHT22;30858;51.108;8.068;2023-05-10T06:47:41;13.10;99.90
45096;DHT22;30858;51.108;8.068;2023-05-10T06:50:08;13.30;99.90
45096;DHT22;30858;51.108;8.068;2023-05-10T06:52:33;13.50;99.90
45096;DHT22;30858;51.108;8.068;2023-05-10T06:54:59;13.70;99.90
45096;DHT22;30858;51.108;8.068;2023-05-10T06:57:25;13.80;99.90
45096;DHT22;30858;51.108;8.068;2023-05-10T06:59:51;13.70;99.90
45096;DHT22;30858;51.108;8.068;2023-05-10T07:02:17;14.00;99.90
45096;DHT22;30858;51.108;8.068;2023-05-10T07:04:43;13.70;99.90
45096;DHT22;30858;51.108;8.068;2023-05-10T07:07:08;13.80;99.90
45096;DHT22;30858;51.108;8.068;2023-05-10T07:09:34;14.00;99.90
45096;DHT22;30858;51.108;8.068;2023-05-10T07:11:59;14.00;99.90
45096;DHT22;30858;51.108;8.068;2023-05-10T07:14:27;14.10;99.90
45096;DHT22;30858;51.108;8.068;2023-05-10T07:16:52;14.20;99.90
45096;DHT22;30858;51.108;8.068;2023-05-10T07:19:18;14.20;99.90
45096;DHT22;30858;51.108;8.068;2023-05-10T07:21:44;14.20;99.90
45096;DHT22;30858;51.108;8.068;2023-05-10T07:24:10;14.40;99.90
45096;DHT22;30858;51.108;8.068;2023-05-10T07:26:35;14.90;99.90
45096;DHT22;30858;51.108;8.068;2023-05-10T07:29:01;15.20;99.90
45096;DHT22;30858;51.108;8.068;2023-05-10T07:31:27;15.10;99.90
45096;DHT22;30858;51.108;8.068;2023-05-10T07:33:53;15.20;99.90
45096;DHT22;30858;51.108;8.068;2023-05-10T07:36:19;15.10;99.90
45096;DHT22;30858;51.108;8.068;2023-05-10T07:38:44;14.90;99.90
45096;DHT22;30858;51.108;8.068;2023-05-10T07:41:11;14.80;99.90
45096;DHT22;30858;51.108;8.068;2023-05-10T07:43:37;14.70;99.90
45096;DHT22;30858;51.108;8.068;2023-05-10T07:46:03;14.60;99.90
45096;DHT22;30858;51.108;8.068;2023-05-10T07:48:28;14.60;99.90
45096;DHT22;30858;51.108;8.068;2023-05-10T07:50:54;14.60;99.90
45096;DHT22;30858;51.108;8.068;2023-05-10T07:53:19;14.60;99.90
45096;DHT22;30858;51.108;8.068;2023-05-10T07:55:50;14.60;99.90
45096;DHT22;30858;51.108;8.068;2023-05-10T07:58:15;14.70;99.90
45096;DHT22;30858;51.108;8.068;2023-05-10T08:00:41;14.80;99.90
45096;DHT22;30858;51.108;8.068;2023-05-10T08:03:06;14.60;99.90
45096;DHT22;30858;51.108;8.068;2023-05-10T08:05:32;14.80;99.90
45096;DHT22;30858;51.108;8.068;2023-05-10T08:07:57;14.80;99.90
45096;DHT22;30858;51.108;8.068;2023-05-10T08:10:24;14.80;99.90
45096;DHT22;30858;51.108;8.068;2023-05-10T08:12:50;14.90;99.90
45096;DHT22;30858;51.108;8.068;2023-05-10T08:15:16;14.60;99.90
45096;DHT22;30858;51.108;8.068;2023-05-10T08:17:41;14.70;99.90
45096;DHT22;30858;51.108;8.068;2023-05-10T08:20:08;14.60;99.90
45096;DHT22;30858;51.108;8.068;2023-05-10T08:22:34;14.30;99.90
45096;DHT22;30858;51.108;8.068;2023-05-10T08:24:59;13.90;99.90
45096;DHT22;30858;51.108;8.068;2023-05-10T08:27:25;13.80;99.90
45096;DHT22;30858;51.108;8.068;2023-05-10T08:29:50;13.80;99.90
45096;DHT22;30858;51.108;8.068;2023-05-10T08:32:17;13.80;99.90
45096;DHT22;30858;51.108;8.068;2023-05-10T08:34:42;13.80;99.90
45096;DHT22;30858;51.108;8.068;2023-05-10T08:37:08;13.90;99.90
45096;DHT22;30858;51.108;8.068;2023-05-10T08:39:37;13.80;99.90
45096;DHT22;30858;51.108;8.068;2023-05-10T08:42:04;14.00;99.90
45096;DHT22;30858;51.108;8.068;2023-05-10T08:44:35;14.10;99.90
45096;DHT22;30858;51.108;8.068;2023-05-10T08:47:05;14.10;99.90
45096;DHT22;30858;51.108;8.068;2023-05-10T08:49:32;14.40;99.90
45096;DHT22;30858;51.108;8.068;2023-05-10T08:52:02;14.60;99.90
45096;DHT22;30858;51.108;8.068;2023-05-10T08:54:29;15.10;99.90
45096;DHT22;30858;51.108;8.068;2023-05-10T08:56:56;15.40;99.90
45096;DHT22;30858;51.108;8.068;2023-05-10T08:59:22;15.40;99.90
45096;DHT22;30858;51.108;8.068;2023-05-10T09:01:48;15.40;99.90
45096;DHT22;30858;51.108;8.068;2023-05-10T09:04:15;15.30;99.90
45096;DHT22;30858;51.108;8.068;2023-05-10T09:06:40;15.20;99.90
45096;DHT22;30858;51.108;8.068;2023-05-10T09:09:06;15.20;99.90
45096;DHT22;30858;51.108;8.068;2023-05-10T09:11:32;15.40;99.90
45096;DHT22;30858;51.108;8.068;2023-05-10T09:13:58;15.50;99.90
45096;DHT22;30858;51.108;8.068;2023-05-10T09:16:24;15.70;99.90
45096;DHT22;30858;51.108;8.068;2023-05-10T09:18:49;15.90;99.90
45096;DHT22;30858;51.108;8.068;2023-05-10T09:21:15;15.90;99.90
45096;DHT22;30858;51.108;8.068;2023-05-10T09:23:44;16.10;99.90
45096;DHT22;30858;51.108;8.068;2023-05-10T09:26:12;16.30;99.90
45096;DHT22;30858;51.108;8.068;2023-05-10T09:28:54;16.20;99.90
45096;DHT22;30858;51.108;8.068;2023-05-10T09:31:20;15.90;99.90
45096;DHT22;30858;51.108;8.068;2023-05-10T09:33:48;15.60;99.90
45096;DHT22;30858;51.108;8.068;2023-05-10T09:36:15;15.70;99.90
45096;DHT22;30858;51.108;8.068;2023-05-10T09:38:51;15.90;99.90
45096;DHT22;30858;51.108;8.068;2023-05-10T09:41:22;16.00;99.90
45096;DHT22;30858;51.108;8.068;2023-05-10T09:43:48;16.10;99.90
45096;DHT22;30858;51.108;8.068;2023-05-10T09:46:15;16.00;99.90
45096;DHT22;30858;51.108;8.068;2023-05-10T09:48:47;15.90;99.90
45096;DHT22;30858;51.108;8.068;2023-05-10T09:51:20;16.00;99.90
45096;DHT22;30858;51.108;8.068;2023-05-10T09:53:46;16.00;99.90
45096;DHT22;30858;51.108;8.068;2023-05-10T09:56:11;16.20;99.90
45096;DHT22;30858;51.108;8.068;2023-05-10T09:58:37;16.20;99.90
45096;DHT22;30858;51.108;8.068;2023-05-10T10:01:11;16.20;99.90
45096;DHT22;30858;51.108;8.068;2023-05-10T10:03:41;16.00;99.90
45096;DHT22;30858;51.108;8.068;2023-05-10T10:06:07;16.00;99.90
45096;DHT22;30858;51.108;8.068;2023-05-10T10:08:34;16.10;99.90
45096;DHT22;30858;51.108;8.068;2023-05-10T10:11:00;16.20;99.90
45096;DHT22;30858;51.108;8.068;2023-05-10T10:13:25;16.20;99.90
45096;DHT22;30858;51.108;8.068;2023-05-10T10:15:52;16.20;99.90
45096;DHT22;30858;51.108;8.068;2023-05-10T10:18:19;16.30;99.90
45096;DHT22;30858;51.108;8.068;2023-05-10T10:20:49;16.50;99.90
45096;DHT22;30858;51.108;8.068;2023-05-10T10:23:15;16.60;99.90
45096;DHT22;30858;51.108;8.068;2023-05-10T10:25:40;16.50;99.90
45096;DHT22;30858;51.108;8.068;2023-05-10T10:30:48;16.90;99.90
45096;DHT22;30858;51.108;8.068;2023-05-10T10:36:01;17.30;99.90
45096;DHT22;30858;51.108;8.068;2023-05-10T10:41:32;17.60;99.90
45096;DHT22;30858;51.108;8.068;2023-05-10T10:49:49;18.20;99.90
45096;DHT22;30858;51.108;8.068;2023-05-10T10:55:15;18.00;99.90
45096;DHT22;30858;51.108;8.068;2023-05-10T10:57:54;18.00;99.90
45096;DHT22;30858;51.108;8.068;2023-05-10T11:00:30;17.80;99.90
45096;DHT22;30858;51.108;8.068;2023-05-10T11:03:08;17.60;99.90
45096;DHT22;30858;51.108;8.068;2023-05-10T11:05:41;17.80;99.90
45096;DHT22;30858;51.108;8.068;2023-05-10T11:08:09;17.90;99.90
45096;DHT22;30858;51.108;8.068;2023-05-10T11:10:35;17.80;99.90
45096;DHT22;30858;51.108;8.068;2023-05-10T11:13:09;18.10;99.90
45096;DHT22;30858;51.108;8.068;2023-05-10T11:15:39;17.90;99.90
45096;DHT22;30858;51.108;8.068;2023-05-10T11:18:17;17.80;99.90
45096;DHT22;30858;51.108;8.068;2023-05-10T11:20:44;17.70;99.90
45096;DHT22;30858;51.108;8.068;2023-05-10T11:23:13;17.40;99.90
45096;DHT22;30858;51.108;8.068;2023-05-10T11:25:42;17.20;99.90
45096;DHT22;30858;51.108;8.068;2023-05-10T11:28:08;17.10;99.90
45096;DHT22;30858;51.108;8.068;2023-05-10T11:30:35;16.90;99.90
45096;DHT22;30858;51.108;8.068;2023-05-10T11:33:01;16.70;99.90
45096;DHT22;30858;51.108;8.068;2023-05-10T11:35:27;16.70;99.90
45096;DHT22;30858;51.108;8.068;2023-05-10T11:37:53;16.80;99.90
45096;DHT22;30858;51.108;8.068;2023-05-10T11:40:21;17.00;99.90
45096;DHT22;30858;51.108;8.068;2023-05-10T11:42:46;17.20;99.90
45096;DHT22;30858;51.108;8.068;2023-05-10T11:45:12;17.20;99.90
45096;DHT22;30858;51.108;8.068;2023-05-10T11:47:38;17.10;99.90
45096;DHT22;30858;51.108;8.068;2023-05-10T11:50:05;17.00;99.90
45096;DHT22;30858;51.108;8.068;2023-05-10T11:52:35;17.00;99.90
45096;DHT22;30858;51.108;8.068;2023-05-10T11:55:02;17.10;99.90
45096;DHT22;30858;51.108;8.068;2023-05-10T11:57:28;17.00;99.90
45096;DHT22;30858;51.108;8.068;2023-05-10T11:59:55;17.10;99.90
45096;DHT22;30858;51.108;8.068;2023-05-10T12:02:21;16.80;99.90
45096;DHT22;30858;51.108;8.068;2023-05-10T12:04:47;17.00;99.90
45096;DHT22;30858;51.108;8.068;2023-05-10T12:07:12;17.00;99.90
45096;DHT22;30858;51.108;8.068;2023-05-10T12:12:27;16.60;99.90
45096;DHT22;30858;51.108;8.068;2023-05-10T12:14:52;16.50;99.90
45096;DHT22;30858;51.108;8.068;2023-05-10T12:17:18;16.40;99.90
45096;DHT22;30858;51.108;8.068;2023-05-10T12:19:43;16.40;99.90
45096;DHT22;30858;51.108;8.068;2023-05-10T12:22:09;16.30;99.90
45096;DHT22;30858;51.108;8.068;2023-05-10T12:24:35;16.10;99.90
45096;DHT22;30858;51.108;8.068;2023-05-10T12:27:05;15.90;99.90
45096;DHT22;30858;51.108;8.068;2023-05-10T12:29:33;15.60;99.90
45096;DHT22;30858;51.108;8.068;2023-05-10T12:31:59;15.50;99.90
45096;DHT22;30858;51.108;8.068;2023-05-10T12:34:35;15.50;99.90
45096;DHT22;30858;51.108;8.068;2023-05-10T12:37:04;15.50;99.90
45096;DHT22;30858;51.108;8.068;2023-05-10T12:39:40;15.50;99.90
45096;DHT22;30858;51.108;8.068;2023-05-10T12:42:06;15.40;99.90
45096;DHT22;30858;51.108;8.068;2023-05-10T12:44:32;15.50;99.90
45096;DHT22;30858;51.108;8.068;2023-05-10T12:46:57;15.50;99.90
45096;DHT22;30858;51.108;8.068;2023-05-10T12:49:23;15.40;99.90
45096;DHT22;30858;51.108;8.068;2023-05-10T12:51:48;15.50;99.90
45096;DHT22;30858;51.108;8.068;2023-05-10T12:54:14;15.50;99.90
45096;DHT22;30858;51.108;8.068;2023-05-10T12:56:39;15.60;99.90
45096;DHT22;30858;51.108;8.068;2023-05-10T12:59:06;15.50;99.90
45096;DHT22;30858;51.108;8.068;2023-05-10T13:01:31;15.50;99.90
45096;DHT22;30858;51.108;8.068;2023-05-10T13:03:57;15.50;99.90
45096;DHT22;30858;51.108;8.068;2023-05-10T13:06:22;15.50;99.90
45096;DHT22;30858;51.108;8.068;2023-05-10T13:08:48;15.60;99.90
45096;DHT22;30858;51.108;8.068;2023-05-10T13:11:14;15.70;99.90
45096;DHT22;30858;51.108;8.068;2023-05-10T13:13:42;15.60;99.90
45096;DHT22;30858;51.108;8.068;2023-05-10T13:16:07;15.70;99.90
45096;DHT22;30858;51.108;8.068;2023-05-10T13:18:33;15.90;99.90
45096;DHT22;30858;51.108;8.068;2023-05-10T13:20:58;16.00;99.90
45096;DHT22;30858;51.108;8.068;2023-05-10T13:23:24;16.00;99.90
45096;DHT22;30858;51.108;8.068;2023-05-10T13:25:49;16.10;99.90
45096;DHT22;30858;51.108;8.068;2023-05-10T13:28:15;16.10;99.90
45096;DHT22;30858;51.108;8.068;2023-05-10T13:30:41;16.00;99.90
45096;DHT22;30858;51.108;8.068;2023-05-10T13:33:06;16.00;99.90
45096;DHT22;30858;51.108;8.068;2023-05-10T13:35:32;16.10;99.90
45096;DHT22;30858;51.108;8.068;2023-05-10T13:37:57;16.10;99.90
45096;DHT22;30858;51.108;8.068;2023-05-10T13:40:23;16.10;99.90
45096;DHT22;30858;51.108;8.068;2023-05-10T13:42:48;16.20;99.90
45096;DHT22;30858;51.108;8.068;2023-05-10T13:45:14;16.50;99.90
45096;DHT22;30858;51.108;8.068;2023-05-10T13:47:40;17.00;99.90
45096;DHT22;30858;51.108;8.068;2023-05-10T13:50:06;17.10;99.90
45096;DHT22;30858;51.108;8.068;2023-05-10T13:52:32;17.20;99.90
45096;DHT22;30858;51.108;8.068;2023-05-10T13:54:57;17.00;99.90
45096;DHT22;30858;51.108;8.068;2023-05-10T13:57:23;16.80;99.90
45096;DHT22;30858;51.108;8.068;2023-05-10T13:59:49;16.80;99.90
45096;DHT22;30858;51.108;8.068;2023-05-10T14:02:15;16.90;99.90
45096;DHT22;30858;51.108;8.068;2023-05-10T14:04:40;16.90;99.90
45096;DHT22;30858;51.108;8.068;2023-05-10T14:07:06;16.80;99.90
45096;DHT22;30858;51.108;8.068;2023-05-10T14:09:32;17.10;99.90
45096;DHT22;30858;51.108;8.068;2023-05-10T14:11:57;17.70;99.90
45096;DHT22;30858;51.108;8.068;2023-05-10T14:14:24;18.40;99.90
45096;DHT22;30858;51.108;8.068;2023-05-10T14:16:50;18.60;99.90
45096;DHT22;30858;51.108;8.068;2023-05-10T14:19:15;18.40;99.90
45096;DHT22;30858;51.108;8.068;2023-05-10T14:21:41;19.00;99.90
45096;DHT22;30858;51.108;8.068;2023-05-10T14:24:06;18.90;99.90
45096;DHT22;30858;51.108;8.068;2023-05-10T14:26:32;18.70;99.90
45096;DHT22;30858;51.108;8.068;2023-05-10T14:28:58;18.80;99.90
45096;DHT22;30858;51.108;8.068;2023-05-10T14:31:24;18.50;99.90
45096;DHT22;30858;51.108;8.068;2023-05-10T14:33:50;18.30;99.90
45096;DHT22;30858;51.108;8.068;2023-05-10T14:36:17;18.40;99.90
45096;DHT22;30858;51.108;8.068;2023-05-10T14:38:43;18.30;99.90
45096;DHT22;30858;51.108;8.068;2023-05-10T14:41:09;18.50;99.90
45096;DHT22;30858;51.108;8.068;2023-05-10T14:43:34;18.40;99.90
45096;DHT22;30858;51.108;8.068;2023-05-10T14:46:00;18.10;99.90
45096;DHT22;30858;51.108;8.068;2023-05-10T14:48:26;18.20;99.90
45096;DHT22;30858;51.108;8.068;2023-05-10T14:50:51;18.20;99.90
45096;DHT22;30858;51.108;8.068;2023-05-10T14:53:18;18.40;99.90
45096;DHT22;30858;51.108;8.068;2023-05-10T14:55:43;18.50;99.90
45096;DHT22;30858;51.108;8.068;2023-05-10T14:58:09;18.60;99.90
45096;DHT22;30858;51.108;8.068;2023-05-10T15:00:34;18.70;99.90
45096;DHT22;30858;51.108;8.068;2023-05-10T15:03:00;19.10;99.90
45096;DHT22;30858;51.108;8.068;2023-05-10T15:05:26;19.70;99.90
45096;DHT22;30858;51.108;8.068;2023-05-10T15:07:52;19.60;99.90
45096;DHT22;30858;51.108;8.068;2023-05-10T15:10:18;19.50;99.90
45096;DHT22;30858;51.108;8.068;2023-05-10T15:12:43;19.10;99.90
45096;DHT22;30858;51.108;8.068;2023-05-10T15:15:09;18.70;99.90
45096;DHT22;30858;51.108;8.068;2023-05-10T15:17:34;18.60;99.90
45096;DHT22;30858;51.108;8.068;2023-05-10T15:20:01;18.30;99.90
45096;DHT22;30858;51.108;8.068;2023-05-10T15:22:28;18.10;99.90
45096;DHT22;30858;51.108;8.068;2023-05-10T15:24:54;17.90;99.90
45096;DHT22;30858;51.108;8.068;2023-05-10T15:27:20;17.70;99.90
45096;DHT22;30858;51.108;8.068;2023-05-10T15:29:45;17.60;99.90
45096;DHT22;30858;51.108;8.068;2023-05-10T15:32:11;17.80;99.90
45096;DHT22;30858;51.108;8.068;2023-05-10T15:34:36;18.10;99.90
45096;DHT22;30858;51.108;8.068;2023-05-10T15:37:02;18.40;99.90
45096;DHT22;30858;51.108;8.068;2023-05-10T15:39:28;18.60;99.90
45096;DHT22;30858;51.108;8.068;2023-05-10T15:41:53;18.40;99.90
45096;DHT22;30858;51.108;8.068;2023-05-10T15:44:19;18.30;99.90
45096;DHT22;30858;51.108;8.068;2023-05-10T15:46:44;18.30;99.90
45096;DHT22;30858;51.108;8.068;2023-05-10T15:49:10;18.40;99.90
45096;DHT22;30858;51.108;8.068;2023-05-10T15:51:36;18.10;99.90
45096;DHT22;30858;51.108;8.068;2023-05-10T15:54:01;18.50;99.90
45096;DHT22;30858;51.108;8.068;2023-05-10T15:56:27;18.50;99.90
45096;DHT22;30858;51.108;8.068;2023-05-10T15:58:53;18.60;99.90
45096;DHT22;30858;51.108;8.068;2023-05-10T16:01:19;18.20;99.90
45096;DHT22;30858;51.108;8.068;2023-05-10T16:03:45;18.30;99.90
45096;DHT22;30858;51.108;8.068;2023-05-10T16:06:10;18.30;99.90